createdAt,value
2019-05-16T00:01:24.053Z,7.13
2019-05-16T00:03:54.172Z,6.27
2019-05-16T00:06:24.111Z,7.60
2019-05-16T00:08:58.477Z,7.17
2019-05-16T00:11:28.200Z,8.33
2019-05-16T00:13:58.045Z,7.07
2019-05-16T00:16:28.819Z,8.57
2019-05-16T00:18:58.775Z,10.77
2019-05-16T00:21:28.659Z,8.77
2019-05-16T00:23:58.757Z,9.13
2019-05-16T00:26:28.637Z,8.07
2019-05-16T00:28:59.178Z,11.67
2019-05-16T00:31:29.132Z,12.43
2019-05-16T00:33:59.323Z,11.20
2019-05-16T00:36:29.500Z,11.70
2019-05-16T00:38:59.754Z,11.03
2019-05-16T00:41:29.575Z,9.57
2019-05-16T00:43:59.350Z,10.73
2019-05-16T00:46:29.665Z,8.80
2019-05-16T00:48:59.634Z,14.23
2019-05-16T00:51:29.922Z,10.57
2019-05-16T00:53:59.811Z,12.57
2019-05-16T00:56:30.849Z,11.30
2019-05-16T00:59:01.010Z,9.40
2019-05-16T01:01:30.836Z,10.60
2019-05-16T01:04:01.083Z,12.23
2019-05-16T01:06:30.883Z,12.80
2019-05-16T01:09:00.766Z,9.60
2019-05-16T01:11:30.500Z,11.00
2019-05-16T01:14:00.535Z,9.70
2019-05-16T01:16:30.742Z,11.60
2019-05-16T01:19:00.625Z,8.57
2019-05-16T01:21:31.579Z,17.93
2019-05-16T01:24:01.384Z,21.67
2019-05-16T01:26:31.171Z,14.23
2019-05-16T01:29:00.996Z,13.40
2019-05-16T01:31:30.936Z,11.20
2019-05-16T01:34:01.055Z,10.97
2019-05-16T01:36:36.815Z,10.13
2019-05-16T01:39:02.321Z,13.27
2019-05-16T01:41:32.092Z,11.90
2019-05-16T01:44:02.237Z,14.50
2019-05-16T01:46:31.993Z,10.53
2019-05-16T01:49:02.026Z,13.90
2019-05-16T01:51:31.843Z,10.60
2019-05-16T01:54:02.109Z,11.27
2019-05-16T01:56:31.895Z,12.90
2019-05-16T01:59:01.716Z,11.70
2019-05-16T02:01:32.229Z,11.00
2019-05-16T02:04:02.070Z,12.63
2019-05-16T02:06:31.866Z,11.30
2019-05-16T02:09:02.006Z,11.70
2019-05-16T02:11:31.778Z,12.13
2019-05-16T02:14:01.601Z,13.73
2019-05-16T02:16:31.882Z,12.13
2019-05-16T02:19:01.607Z,12.57
2019-05-16T02:21:31.505Z,14.33
2019-05-16T02:24:02.209Z,16.33
2019-05-16T02:26:32.162Z,13.17
2019-05-16T02:29:02.391Z,13.77
2019-05-16T02:31:32.173Z,12.60
2019-05-16T02:34:04.798Z,13.07
2019-05-16T02:36:33.337Z,13.30
2019-05-16T02:39:05.307Z,16.17
2019-05-16T02:41:35.183Z,13.53
2019-05-16T02:44:05.152Z,14.70
2019-05-16T02:46:34.935Z,11.70
2019-05-16T02:49:04.735Z,13.00
2019-05-16T02:51:34.535Z,10.13
2019-05-16T02:54:04.327Z,13.70
2019-05-16T02:56:34.096Z,12.80
2019-05-16T02:59:04.214Z,13.27
2019-05-16T03:01:35.509Z,20.73
2019-05-16T03:04:05.413Z,15.70
2019-05-16T03:06:36.070Z,14.60
2019-05-16T03:09:10.928Z,14.37
2019-05-16T03:11:41.904Z,13.97
2019-05-16T03:14:12.765Z,13.80
2019-05-16T03:16:44.292Z,17.40
2019-05-16T03:19:15.195Z,14.53
2019-05-16T03:21:46.705Z,14.93
2019-05-16T03:24:16.714Z,15.53
2019-05-16T03:26:46.658Z,17.20
2019-05-16T03:29:17.182Z,15.13
2019-05-16T03:31:47.021Z,13.53
2019-05-16T03:34:17.493Z,12.47
2019-05-16T03:36:53.736Z,16.40
2019-05-16T03:39:21.258Z,16.53
2019-05-16T03:41:51.129Z,16.27
2019-05-16T03:44:21.177Z,14.57
2019-05-16T03:46:51.807Z,13.57
2019-05-16T03:49:21.818Z,16.23
2019-05-16T03:51:51.611Z,17.50
2019-05-16T03:54:21.482Z,20.00
2019-05-16T03:56:51.836Z,12.73
2019-05-16T03:59:21.725Z,16.33
2019-05-16T04:01:51.956Z,17.63
2019-05-16T04:04:22.107Z,15.90
2019-05-16T04:06:51.956Z,18.27
2019-05-16T04:09:21.698Z,15.13
2019-05-16T04:11:51.552Z,17.73
2019-05-16T04:14:21.619Z,14.23
2019-05-16T04:16:52.123Z,15.77
2019-05-16T04:19:22.300Z,19.00
2019-05-16T04:21:52.867Z,16.30
2019-05-16T04:24:23.811Z,14.77
2019-05-16T04:26:54.384Z,14.87
2019-05-16T04:29:24.586Z,17.03
2019-05-16T04:31:54.422Z,18.07
2019-05-16T04:34:24.611Z,17.83
2019-05-16T04:36:54.851Z,18.20
2019-05-16T04:39:24.690Z,16.73
2019-05-16T04:41:54.907Z,17.83
2019-05-16T04:44:24.686Z,17.40
2019-05-16T04:46:54.450Z,16.40
2019-05-16T04:49:24.272Z,14.73
2019-05-16T04:51:54.020Z,17.87
2019-05-16T04:54:23.818Z,15.10
2019-05-16T04:56:53.593Z,17.57
2019-05-16T04:59:23.379Z,16.20
2019-05-16T05:01:53.116Z,15.67
2019-05-16T05:04:23.665Z,16.30
2019-05-16T05:06:55.778Z,17.23
2019-05-16T05:09:25.143Z,16.50
2019-05-16T05:11:54.962Z,16.60
2019-05-16T05:14:25.025Z,14.50
2019-05-16T05:16:55.250Z,21.00
2019-05-16T05:19:25.048Z,17.00
2019-05-16T05:21:55.119Z,16.13
2019-05-16T05:24:24.956Z,16.50
2019-05-16T05:26:55.171Z,16.60
2019-05-16T05:29:25.097Z,14.63
2019-05-16T05:31:55.902Z,15.70
2019-05-16T05:34:26.358Z,17.33
2019-05-16T05:36:56.852Z,16.60
2019-05-16T05:39:27.074Z,13.27
2019-05-16T05:41:56.848Z,17.47
2019-05-16T05:44:26.642Z,12.77
2019-05-16T05:46:56.401Z,15.13
2019-05-16T05:49:26.521Z,15.40
2019-05-16T05:51:56.669Z,19.83
2019-05-16T05:54:26.467Z,14.27
2019-05-16T05:56:56.286Z,19.33
2019-05-16T05:59:26.045Z,16.70
2019-05-16T06:01:55.838Z,13.80
2019-05-16T06:04:25.584Z,14.10
2019-05-16T06:06:56.251Z,17.30
2019-05-16T06:09:30.055Z,15.23
2019-05-16T06:11:57.847Z,14.47
2019-05-16T06:14:30.442Z,18.13
2019-05-16T06:17:00.363Z,18.43
2019-05-16T06:19:31.003Z,18.17
2019-05-16T06:22:01.588Z,13.77
2019-05-16T06:24:31.488Z,12.43
2019-05-16T06:27:01.312Z,12.53
2019-05-16T06:29:31.175Z,10.83
2019-05-16T06:32:01.784Z,13.77
2019-05-16T06:34:31.763Z,13.17
2019-05-16T06:37:01.573Z,11.97
2019-05-16T06:39:41.163Z,10.57
2019-05-16T06:42:03.168Z,13.10
2019-05-16T06:44:33.035Z,13.50
2019-05-16T06:47:15.998Z,15.00
2019-05-16T06:49:36.626Z,10.80
2019-05-16T06:52:10.274Z,14.30
2019-05-16T06:54:40.747Z,15.00
2019-05-16T06:57:10.769Z,10.27
2019-05-16T06:59:41.422Z,15.27
2019-05-16T07:02:25.283Z,14.47
2019-05-16T07:04:42.687Z,12.00
2019-05-16T07:07:12.862Z,13.40
2019-05-16T07:09:57.342Z,13.33
2019-05-16T07:12:14.054Z,13.17
2019-05-16T07:14:50.319Z,15.17
2019-05-16T07:17:20.195Z,10.63
2019-05-16T07:19:50.506Z,18.40
2019-05-16T07:22:20.688Z,13.00
2019-05-16T07:24:50.616Z,12.60
2019-05-16T07:27:22.019Z,13.00
2019-05-16T07:29:52.442Z,10.93
2019-05-16T07:32:22.223Z,11.33
2019-05-16T07:34:52.033Z,10.50
2019-05-16T07:37:21.830Z,11.67
2019-05-16T07:39:52.002Z,14.27
2019-05-16T07:42:22.411Z,10.30
2019-05-16T07:44:52.835Z,10.67
2019-05-16T07:47:22.566Z,13.77
2019-05-16T07:49:52.367Z,10.97
2019-05-16T07:52:22.481Z,11.13
2019-05-16T07:54:52.291Z,10.17
2019-05-16T07:57:23.102Z,15.57
2019-05-16T07:59:53.018Z,9.87
2019-05-16T08:02:22.774Z,10.60
2019-05-16T08:04:52.598Z,10.90
2019-05-16T08:07:22.858Z,9.40
2019-05-16T08:09:53.135Z,8.57
2019-05-16T08:12:26.387Z,7.23
2019-05-16T08:14:55.341Z,7.23
2019-05-16T08:17:25.448Z,9.60
2019-05-16T08:19:55.753Z,7.57
2019-05-16T08:22:25.650Z,6.77
2019-05-16T08:24:55.435Z,7.97
2019-05-16T08:27:25.571Z,7.53
2019-05-16T08:29:55.905Z,8.50
2019-05-16T08:32:31.147Z,8.30
2019-05-16T08:37:38.432Z,10.80
2019-05-16T08:40:03.175Z,7.30
2019-05-16T08:42:33.786Z,6.67
2019-05-16T08:45:04.176Z,9.17
2019-05-16T08:47:33.968Z,11.07
2019-05-16T08:50:03.790Z,8.23
2019-05-16T08:52:34.003Z,9.37
2019-05-16T08:55:04.091Z,8.87
2019-05-16T08:57:34.122Z,9.83
2019-05-16T09:00:14.717Z,7.90
2019-05-16T09:02:42.356Z,8.57
2019-05-16T09:05:15.686Z,8.97
2019-05-16T09:07:48.788Z,9.50
2019-05-16T09:10:37.862Z,8.53
2019-05-16T09:12:50.507Z,10.97
2019-05-16T09:15:21.047Z,9.00
2019-05-16T09:17:50.973Z,8.80
2019-05-16T09:20:21.158Z,7.20
2019-05-16T09:22:51.010Z,8.93
2019-05-16T09:25:20.965Z,8.70
2019-05-16T09:27:52.410Z,8.63
2019-05-16T09:30:22.313Z,8.67
2019-05-16T09:32:52.526Z,8.50
2019-05-16T09:35:22.797Z,8.17
2019-05-16T09:37:52.650Z,8.63
2019-05-16T09:40:23.014Z,8.77
2019-05-16T09:42:53.224Z,8.50
2019-05-16T09:45:23.551Z,9.80
2019-05-16T09:47:53.316Z,7.97
2019-05-16T09:50:26.615Z,8.10
2019-05-16T09:52:56.719Z,8.47
2019-05-16T09:55:26.995Z,7.60
2019-05-16T09:57:58.348Z,7.83
2019-05-16T10:00:29.554Z,6.53
2019-05-16T10:02:59.813Z,8.93
2019-05-16T10:05:29.969Z,8.17
2019-05-16T10:07:59.849Z,7.40
2019-05-16T10:10:29.714Z,8.97
2019-05-16T10:13:00.403Z,8.13
2019-05-16T10:15:31.038Z,10.10
2019-05-16T10:18:01.236Z,10.10
2019-05-16T10:20:30.999Z,10.73
2019-05-16T10:23:00.910Z,10.03
2019-05-16T10:25:31.270Z,9.57
2019-05-16T10:28:01.198Z,10.20
2019-05-16T10:30:31.658Z,10.20
2019-05-16T10:33:01.496Z,9.87
2019-05-16T10:35:31.391Z,8.53
2019-05-16T10:38:01.727Z,11.20
2019-05-16T10:40:32.425Z,11.47
2019-05-16T10:43:02.344Z,11.10
2019-05-16T10:45:32.233Z,8.93
2019-05-16T10:48:02.508Z,10.37
2019-05-16T10:50:32.872Z,9.63
2019-05-16T10:53:23.817Z,10.33
2019-05-16T10:55:36.810Z,10.23
2019-05-16T10:58:07.538Z,8.60
2019-05-16T11:01:05.085Z,11.43
2019-05-16T11:03:09.029Z,8.30
2019-05-16T11:05:39.628Z,9.90
2019-05-16T11:08:10.745Z,9.83
2019-05-16T11:10:40.608Z,11.43
2019-05-16T11:13:10.486Z,8.97
2019-05-16T11:15:41.025Z,8.10
2019-05-16T11:18:12.340Z,9.47
2019-05-16T11:20:45.027Z,9.43
2019-05-16T11:23:13.502Z,14.30
2019-05-16T11:25:43.652Z,10.83
2019-05-16T11:28:13.497Z,9.47
2019-05-16T11:30:44.035Z,11.63
2019-05-16T11:33:17.154Z,11.47
2019-05-16T11:35:47.685Z,8.93
2019-05-16T11:38:18.070Z,9.90
2019-05-16T11:40:48.310Z,8.47
2019-05-16T11:43:21.514Z,8.30
2019-05-16T11:45:49.630Z,8.17
2019-05-16T11:48:19.653Z,9.43
2019-05-16T11:50:49.758Z,8.90
2019-05-16T11:53:19.626Z,9.53
2019-05-16T11:55:56.165Z,11.77
2019-05-16T11:58:22.466Z,11.00
2019-05-16T12:00:53.042Z,12.80
2019-05-16T12:03:23.242Z,10.50
2019-05-16T12:05:53.048Z,9.20
2019-05-16T12:08:22.874Z,10.70
2019-05-16T12:10:53.069Z,11.60
2019-05-16T12:13:29.790Z,9.90
2019-05-16T12:15:56.637Z,12.23
2019-05-16T12:18:26.762Z,10.17
2019-05-16T12:20:57.350Z,9.53
2019-05-16T12:23:27.730Z,12.20
2019-05-16T12:26:00.083Z,10.50
2019-05-16T12:28:29.277Z,11.10
2019-05-16T12:30:59.020Z,11.27
2019-05-16T12:33:29.205Z,10.10
2019-05-16T12:35:59.055Z,9.90
2019-05-16T12:38:29.851Z,13.73
2019-05-16T12:41:00.935Z,11.50
2019-05-16T12:43:44.561Z,11.67
2019-05-16T12:46:03.390Z,10.57
2019-05-16T12:48:33.194Z,10.13
2019-05-16T12:51:03.003Z,13.23
2019-05-16T12:53:32.792Z,8.97
2019-05-16T12:56:02.635Z,12.90
2019-05-16T12:58:37.967Z,11.13
2019-05-16T13:01:07.479Z,9.37
2019-05-16T13:03:37.782Z,9.60
2019-05-16T13:06:08.513Z,9.60
2019-05-16T13:08:38.322Z,9.80
2019-05-16T13:11:08.137Z,9.77
2019-05-16T13:13:37.924Z,12.03
2019-05-16T13:16:08.269Z,10.80
2019-05-16T13:18:38.376Z,10.13
2019-05-16T13:21:08.566Z,9.90
2019-05-16T13:23:39.782Z,9.90
2019-05-16T13:26:09.954Z,10.43
2019-05-16T13:28:40.002Z,12.37
2019-05-16T13:31:09.907Z,11.37
2019-05-16T13:33:40.288Z,10.20
2019-05-16T13:36:10.848Z,9.83
2019-05-16T13:38:41.016Z,9.80
2019-05-16T13:41:10.748Z,11.30
2019-05-16T13:43:41.297Z,10.50
2019-05-16T13:46:11.660Z,13.40
2019-05-16T13:48:42.293Z,11.00
2019-05-16T13:51:15.894Z,11.77
2019-05-16T13:53:43.844Z,12.63
2019-05-16T13:56:17.544Z,11.20
2019-05-16T13:58:48.003Z,13.23
2019-05-16T14:01:17.867Z,13.83
2019-05-16T14:03:48.182Z,11.60
2019-05-16T14:06:18.807Z,10.60
2019-05-16T14:08:48.974Z,12.37
2019-05-16T14:11:19.633Z,11.83
2019-05-16T14:13:50.541Z,12.60
2019-05-16T14:16:20.339Z,12.50
2019-05-16T14:18:50.117Z,13.10
2019-05-16T14:21:21.387Z,13.67
2019-05-16T14:23:53.134Z,12.80
2019-05-16T14:26:23.001Z,13.20
2019-05-16T14:28:52.811Z,13.90
2019-05-16T14:31:23.135Z,13.83
2019-05-16T14:33:53.014Z,13.23
2019-05-16T14:36:23.226Z,13.90
2019-05-16T14:38:53.132Z,12.70
2019-05-16T14:41:22.983Z,14.43
2019-05-16T14:43:53.069Z,13.23
2019-05-16T14:46:23.046Z,19.77
2019-05-16T14:48:54.526Z,12.23
2019-05-16T14:51:27.265Z,12.70
2019-05-16T14:53:57.317Z,13.50
2019-05-16T14:56:27.596Z,13.53
2019-05-16T14:58:58.310Z,14.40
2019-05-16T15:01:28.539Z,14.10
2019-05-16T15:03:59.158Z,13.50
2019-05-16T15:06:28.914Z,14.47
2019-05-16T15:08:58.747Z,17.53
2019-05-16T15:11:29.145Z,14.07
2019-05-16T15:13:59.034Z,19.40
2019-05-16T15:16:29.599Z,14.23
2019-05-16T15:18:59.444Z,13.83
2019-05-16T15:21:29.658Z,16.03
2019-05-16T15:23:59.841Z,10.87
2019-05-16T15:26:29.738Z,12.00
2019-05-16T15:28:59.704Z,14.20
2019-05-16T15:31:30.064Z,15.97
2019-05-16T15:33:59.794Z,14.20
2019-05-16T15:36:29.684Z,11.00
2019-05-16T15:39:00.303Z,13.20
2019-05-16T15:41:30.402Z,13.53
2019-05-16T15:44:01.458Z,18.63
2019-05-16T15:46:32.875Z,12.90
2019-05-16T15:49:03.664Z,15.83
2019-05-16T15:51:36.753Z,16.00
2019-05-16T15:54:06.725Z,17.97
2019-05-16T15:56:38.470Z,12.80
2019-05-16T15:59:09.841Z,14.40
2019-05-16T16:01:39.850Z,12.57
2019-05-16T16:04:09.636Z,13.10
2019-05-16T16:06:43.099Z,13.70
2019-05-16T16:09:12.127Z,14.87
2019-05-16T16:11:45.130Z,12.43
2019-05-16T16:14:17.131Z,13.37
2019-05-16T16:16:47.092Z,13.40
2019-05-16T16:19:17.471Z,15.37
2019-05-16T16:21:47.535Z,16.47
2019-05-16T16:24:19.086Z,21.07
2019-05-16T16:26:49.176Z,14.40
2019-05-16T16:29:18.964Z,16.87
2019-05-16T16:31:48.911Z,17.53
2019-05-16T16:34:19.177Z,15.30
2019-05-16T16:36:48.924Z,12.93
2019-05-16T16:39:19.100Z,15.40
2019-05-16T16:41:49.203Z,15.03
2019-05-16T16:44:19.039Z,17.40
2019-05-16T16:46:48.814Z,12.93
2019-05-16T16:49:19.066Z,14.33
2019-05-16T16:51:49.185Z,14.93
2019-05-16T16:54:22.052Z,18.47
2019-05-16T16:56:52.276Z,13.70
2019-05-16T16:59:22.070Z,13.60
2019-05-16T17:01:51.834Z,15.27
2019-05-16T17:04:22.179Z,20.40
2019-05-16T17:06:52.864Z,18.03
2019-05-16T17:09:22.660Z,18.43
2019-05-16T17:11:53.393Z,17.23
2019-05-16T17:14:23.270Z,15.83
2019-05-16T17:16:54.070Z,16.03
2019-05-16T17:19:23.899Z,16.70
2019-05-16T17:22:06.457Z,19.80
2019-05-16T17:24:27.360Z,16.30
2019-05-16T17:26:57.853Z,14.43
2019-05-16T17:29:28.104Z,22.20
2019-05-16T17:32:05.898Z,16.97
2019-05-16T17:34:29.729Z,14.50
2019-05-16T17:36:59.803Z,19.27
2019-05-16T17:39:29.562Z,15.30
2019-05-16T17:41:59.686Z,14.17
2019-05-16T17:44:30.222Z,16.20
2019-05-16T17:47:01.235Z,15.30
2019-05-16T17:49:33.079Z,16.13
2019-05-16T17:52:03.723Z,17.23
2019-05-16T17:54:34.292Z,19.00
2019-05-16T17:57:07.250Z,16.47
2019-05-16T17:59:38.103Z,15.70
2019-05-16T18:02:08.624Z,16.80
2019-05-16T18:04:41.178Z,13.07
2019-05-16T18:07:11.581Z,15.33
2019-05-16T18:09:44.006Z,13.60
2019-05-16T18:12:14.513Z,14.37
2019-05-16T18:14:47.456Z,14.00
2019-05-16T18:17:17.875Z,12.13
2019-05-16T18:19:49.616Z,14.43
2019-05-16T18:22:20.489Z,15.13
2019-05-16T18:24:53.827Z,16.23
2019-05-16T18:27:27.202Z,13.73
2019-05-16T18:29:57.558Z,17.93
2019-05-16T18:32:29.289Z,13.80
2019-05-16T18:35:01.280Z,13.57
2019-05-16T18:37:33.488Z,16.07
2019-05-16T18:40:04.087Z,15.90
2019-05-16T18:42:36.897Z,15.40
2019-05-16T18:45:07.567Z,14.20
2019-05-16T18:47:38.824Z,15.53
2019-05-16T18:50:10.429Z,16.27
2019-05-16T18:52:40.819Z,14.00
2019-05-16T18:55:12.058Z,15.80
2019-05-16T18:57:44.104Z,16.23
2019-05-16T19:00:20.405Z,16.37
2019-05-16T19:02:51.269Z,18.47
2019-05-16T19:05:23.352Z,16.17
2019-05-16T19:07:56.349Z,14.80
2019-05-16T19:10:27.038Z,17.07
2019-05-16T19:12:59.821Z,16.23
2019-05-16T19:15:29.304Z,14.10
2019-05-16T19:17:59.653Z,14.27
2019-05-16T19:20:30.117Z,15.03
2019-05-16T19:23:00.790Z,14.80
2019-05-16T19:25:31.590Z,16.03
2019-05-16T19:28:02.003Z,14.13
2019-05-16T19:30:32.299Z,15.93
2019-05-16T19:33:02.324Z,16.20
2019-05-16T19:35:32.434Z,19.20
2019-05-16T19:38:02.853Z,15.63
2019-05-16T19:40:33.123Z,18.83
2019-05-16T19:43:04.332Z,17.67
2019-05-16T19:45:37.010Z,24.00
2019-05-16T19:48:07.241Z,18.47
2019-05-16T19:50:37.896Z,17.90
2019-05-16T19:53:08.111Z,15.83
2019-05-16T19:55:38.618Z,18.47
2019-05-16T19:58:08.608Z,17.40
2019-05-16T20:00:39.204Z,21.07
2019-05-16T20:03:09.042Z,19.30
2019-05-16T20:05:39.164Z,18.47
2019-05-16T20:08:09.861Z,17.27
2019-05-16T20:10:40.350Z,21.97
2019-05-16T20:13:11.304Z,19.77
2019-05-16T20:15:41.694Z,19.03
2019-05-16T20:18:12.251Z,19.40
2019-05-16T20:20:43.057Z,19.07
2019-05-16T20:23:13.829Z,18.10
2019-05-16T20:25:44.381Z,19.10
2019-05-16T20:28:18.251Z,20.37
2019-05-16T20:30:57.088Z,19.97
2019-05-16T20:33:27.656Z,18.53
2019-05-16T20:36:00.465Z,20.27
2019-05-16T20:38:34.675Z,20.90
2019-05-16T20:41:07.573Z,18.40
2019-05-16T20:43:37.159Z,17.70
2019-05-16T20:46:08.459Z,20.90
2019-05-16T20:48:39.100Z,19.97
2019-05-16T20:51:09.275Z,20.03
2019-05-16T20:53:39.829Z,18.77
2019-05-16T20:56:10.291Z,19.43
2019-05-16T20:58:40.771Z,19.67
2019-05-16T21:01:11.215Z,20.67
2019-05-16T21:03:41.696Z,20.43
2019-05-16T21:06:12.811Z,19.43
2019-05-16T21:08:43.271Z,21.03
2019-05-16T21:11:13.957Z,21.77
2019-05-16T21:13:46.894Z,21.20
2019-05-16T21:16:16.661Z,22.37
2019-05-16T21:18:47.504Z,20.23
2019-05-16T21:21:19.355Z,21.77
2019-05-16T21:23:51.769Z,20.33
2019-05-16T21:26:22.406Z,17.87
2019-05-16T21:28:53.101Z,22.10
2019-05-16T21:31:23.543Z,21.90
2019-05-16T21:33:56.500Z,21.60
2019-05-16T21:36:27.734Z,19.77
2019-05-16T21:38:58.844Z,19.87
2019-05-16T21:41:28.993Z,21.10
2019-05-16T21:44:00.186Z,22.47
2019-05-16T21:46:31.055Z,23.53
2019-05-16T21:49:02.230Z,26.03
2019-05-16T21:51:34.020Z,22.83
2019-05-16T21:54:04.218Z,20.40
2019-05-16T21:56:33.970Z,20.40
2019-05-16T21:59:03.857Z,18.83
2019-05-16T22:01:33.914Z,24.17
2019-05-16T22:04:07.185Z,23.67
2019-05-16T22:06:36.572Z,23.47
2019-05-16T22:09:08.041Z,23.07
2019-05-16T22:11:39.770Z,27.97
2019-05-16T22:14:09.652Z,22.70
2019-05-16T22:16:39.519Z,22.60
2019-05-16T22:19:09.313Z,23.63
2019-05-16T22:21:39.531Z,25.67
2019-05-16T22:24:09.381Z,24.40
2019-05-16T22:26:39.218Z,24.37
2019-05-16T22:29:09.825Z,26.30
2019-05-16T22:31:40.305Z,24.93
2019-05-16T22:34:10.105Z,21.60
2019-05-16T22:36:39.898Z,27.93
2019-05-16T22:39:09.762Z,24.80
2019-05-16T22:41:39.680Z,26.80
2019-05-16T22:44:09.877Z,25.30
2019-05-16T22:46:39.691Z,26.00
2019-05-16T22:49:09.618Z,25.80
2019-05-16T22:51:39.450Z,24.70
2019-05-16T22:54:09.199Z,25.80
2019-05-16T22:56:38.978Z,25.63
2019-05-16T22:59:09.401Z,23.90
2019-05-16T23:01:40.103Z,24.73
2019-05-16T23:04:10.195Z,26.03
2019-05-16T23:06:42.013Z,24.03
2019-05-16T23:09:11.774Z,24.70
2019-05-16T23:11:42.105Z,29.10
2019-05-16T23:14:11.959Z,27.57
2019-05-16T23:16:41.802Z,33.13
2019-05-16T23:19:11.583Z,29.40
2019-05-16T23:21:41.419Z,24.87
2019-05-16T23:24:11.556Z,28.90
2019-05-16T23:26:41.323Z,30.20
2019-05-16T23:29:11.506Z,24.03
2019-05-16T23:31:41.322Z,25.00
2019-05-16T23:34:11.602Z,29.97
2019-05-16T23:36:41.947Z,26.17
2019-05-16T23:39:11.858Z,28.13
2019-05-16T23:41:41.991Z,27.80
2019-05-16T23:44:11.746Z,28.63
2019-05-16T23:46:41.502Z,29.27
2019-05-16T23:49:11.363Z,27.80
2019-05-16T23:51:41.440Z,25.70
2019-05-16T23:54:11.711Z,29.17
2019-05-16T23:56:41.483Z,28.20
2019-05-16T23:59:11.312Z,31.03
